sensor_id;sensor_type;location;lat;lon;timestamp;temperature;humidity
78886;DHT22;68269;52.514;5.722;2023-04-15T00:01:35;9.40;57.50
78886;DHT22;68269;52.514;5.722;2023-04-15T00:04:04;9.40;57.50
78886;DHT22;68269;52.514;5.722;2023-04-15T00:06:33;9.40;57.60
78886;DHT22;68269;52.514;5.722;2023-04-15T00:09:02;9.30;57.60
78886;DHT22;68269;52.514;5.722;2023-04-15T00:11:32;9.30;57.60
78886;DHT22;68269;52.514;5.722;2023-04-15T00:14:01;9.20;57.70
78886;DHT22;68269;52.514;5.722;2023-04-15T00:16:34;9.20;57.70
78886;DHT22;68269;52.514;5.722;2023-04-15T00:19:03;9.20;57.70
78886;DHT22;68269;52.514;5.722;2023-04-15T00:21:32;9.20;57.70
78886;DHT22;68269;52.514;5.722;2023-04-15T00:24:02;9.10;57.80
78886;DHT22;68269;52.514;5.722;2023-04-15T00:26:31;9.00;57.80
78886;DHT22;68269;52.514;5.722;2023-04-15T00:29:01;9.00;57.90
78886;DHT22;68269;52.514;5.722;2023-04-15T00:31:33;9.00;57.90
78886;DHT22;68269;52.514;5.722;2023-04-15T00:34:02;8.90;57.90
78886;DHT22;68269;52.514;5.722;2023-04-15T00:36:32;8.90;57.90
78886;DHT22;68269;52.514;5.722;2023-04-15T00:39:01;8.90;58.00
78886;DHT22;68269;52.514;5.722;2023-04-15T00:41:31;8.80;58.00
78886;DHT22;68269;52.514;5.722;2023-04-15T00:44:04;8.80;58.00
78886;DHT22;68269;52.514;5.722;2023-04-15T00:46:38;8.80;58.00
78886;DHT22;68269;52.514;5.722;2023-04-15T00:49:07;8.80;58.10
78886;DHT22;68269;52.514;5.722;2023-04-15T00:51:37;8.80;58.00
78886;DHT22;68269;52.514;5.722;2023-04-15T00:54:07;8.80;58.10
78886;DHT22;68269;52.514;5.722;2023-04-15T00:56:38;8.70;58.00
78886;DHT22;68269;52.514;5.722;2023-04-15T00:59:08;8.70;58.00
78886;DHT22;68269;52.514;5.722;2023-04-15T01:01:40;8.70;58.10
78886;DHT22;68269;52.514;5.722;2023-04-15T01:04:09;8.60;58.10
78886;DHT22;68269;52.514;5.722;2023-04-15T01:06:40;8.60;58.10
78886;DHT22;68269;52.514;5.722;2023-04-15T01:09:10;8.60;58.20
78886;DHT22;68269;52.514;5.722;2023-04-15T01:11:40;8.60;58.20
78886;DHT22;68269;52.514;5.722;2023-04-15T01:14:10;8.50;58.20
78886;DHT22;68269;52.514;5.722;2023-04-15T01:16:42;8.50;58.30
78886;DHT22;68269;52.514;5.722;2023-04-15T01:19:13;8.50;58.30
78886;DHT22;68269;52.514;5.722;2023-04-15T01:21:44;8.40;58.30
78886;DHT22;68269;52.514;5.722;2023-04-15T01:24:17;8.40;58.40
78886;DHT22;68269;52.514;5.722;2023-04-15T01:26:49;8.40;58.40
78886;DHT22;68269;52.514;5.722;2023-04-15T01:29:19;8.30;58.40
78886;DHT22;68269;52.514;5.722;2023-04-15T01:31:51;8.30;58.40
78886;DHT22;68269;52.514;5.722;2023-04-15T01:34:21;8.20;58.40
78886;DHT22;68269;52.514;5.722;2023-04-15T01:36:53;8.20;58.50
78886;DHT22;68269;52.514;5.722;2023-04-15T01:39:22;8.20;58.50
78886;DHT22;68269;52.514;5.722;2023-04-15T01:41:59;8.20;58.50
78886;DHT22;68269;52.514;5.722;2023-04-15T01:44:28;8.10;58.60
78886;DHT22;68269;52.514;5.722;2023-04-15T01:46:57;8.10;58.60
78886;DHT22;68269;52.514;5.722;2023-04-15T01:49:27;8.00;58.60
78886;DHT22;68269;52.514;5.722;2023-04-15T01:51:56;8.00;58.60
78886;DHT22;68269;52.514;5.722;2023-04-15T01:54:25;8.00;58.60
78886;DHT22;68269;52.514;5.722;2023-04-15T01:56:57;8.00;58.60
78886;DHT22;68269;52.514;5.722;2023-04-15T01:59:29;8.00;58.70
78886;DHT22;68269;52.514;5.722;2023-04-15T02:01:59;7.90;58.70
78886;DHT22;68269;52.514;5.722;2023-04-15T02:04:28;7.90;58.70
78886;DHT22;68269;52.514;5.722;2023-04-15T02:06:59;7.90;58.70
78886;DHT22;68269;52.514;5.722;2023-04-15T02:09:29;7.90;58.70
78886;DHT22;68269;52.514;5.722;2023-04-15T02:12:00;7.80;58.70
78886;DHT22;68269;52.514;5.722;2023-04-15T02:14:30;7.80;58.80
78886;DHT22;68269;52.514;5.722;2023-04-15T02:16:59;7.80;58.80
78886;DHT22;68269;52.514;5.722;2023-04-15T02:19:32;7.80;58.80
78886;DHT22;68269;52.514;5.722;2023-04-15T02:22:03;7.80;58.90
78886;DHT22;68269;52.514;5.722;2023-04-15T02:24:32;7.80;58.90
78886;DHT22;68269;52.514;5.722;2023-04-15T02:27:05;7.70;58.90
78886;DHT22;68269;52.514;5.722;2023-04-15T02:29:34;7.70;58.90
78886;DHT22;68269;52.514;5.722;2023-04-15T02:32:04;7.70;58.90
78886;DHT22;68269;52.514;5.722;2023-04-15T02:34:33;7.60;59.00
78886;DHT22;68269;52.514;5.722;2023-04-15T02:37:04;7.60;59.00
78886;DHT22;68269;52.514;5.722;2023-04-15T02:39:34;7.60;59.00
78886;DHT22;68269;52.514;5.722;2023-04-15T02:42:06;7.60;59.00
78886;DHT22;68269;52.514;5.722;2023-04-15T02:44:36;7.60;59.00
78886;DHT22;68269;52.514;5.722;2023-04-15T02:47:06;7.60;59.10
78886;DHT22;68269;52.514;5.722;2023-04-15T02:49:37;7.50;59.10
78886;DHT22;68269;52.514;5.722;2023-04-15T02:52:06;7.50;59.10
78886;DHT22;68269;52.514;5.722;2023-04-15T02:54:35;7.50;59.10
78886;DHT22;68269;52.514;5.722;2023-04-15T02:57:07;7.50;59.20
78886;DHT22;68269;52.514;5.722;2023-04-15T02:59:38;7.50;59.20
78886;DHT22;68269;52.514;5.722;2023-04-15T03:02:07;7.50;59.20
78886;DHT22;68269;52.514;5.722;2023-04-15T03:04:36;7.50;59.20
78886;DHT22;68269;52.514;5.722;2023-04-15T03:07:06;7.50;59.20
78886;DHT22;68269;52.514;5.722;2023-04-15T03:09:35;7.50;59.20
78886;DHT22;68269;52.514;5.722;2023-04-15T03:12:09;7.50;59.20
78886;DHT22;68269;52.514;5.722;2023-04-15T03:14:38;7.50;59.30
78886;DHT22;68269;52.514;5.722;2023-04-15T03:17:07;7.50;59.30
78886;DHT22;68269;52.514;5.722;2023-04-15T03:19:38;7.50;59.30
78886;DHT22;68269;52.514;5.722;2023-04-15T03:22:08;7.50;59.30
78886;DHT22;68269;52.514;5.722;2023-04-15T03:24:37;7.40;59.40
78886;DHT22;68269;52.514;5.722;2023-04-15T03:27:09;7.40;59.40
78886;DHT22;68269;52.514;5.722;2023-04-15T03:29:39;7.40;59.50
78886;DHT22;68269;52.514;5.722;2023-04-15T03:32:08;7.40;59.50
78886;DHT22;68269;52.514;5.722;2023-04-15T03:34:38;7.40;59.50
78886;DHT22;68269;52.514;5.722;2023-04-15T03:37:07;7.40;59.50
78886;DHT22;68269;52.514;5.722;2023-04-15T03:39:36;7.50;59.50
78886;DHT22;68269;52.514;5.722;2023-04-15T03:42:05;7.50;59.50
78886;DHT22;68269;52.514;5.722;2023-04-15T03:44:37;7.50;59.50
78886;DHT22;68269;52.514;5.722;2023-04-15T03:47:07;7.40;59.50
78886;DHT22;68269;52.514;5.722;2023-04-15T03:49:36;7.40;59.60
78886;DHT22;68269;52.514;5.722;2023-04-15T03:52:06;7.40;59.60
78886;DHT22;68269;52.514;5.722;2023-04-15T03:54:35;7.40;59.60
78886;DHT22;68269;52.514;5.722;2023-04-15T03:57:04;7.40;59.70
78886;DHT22;68269;52.514;5.722;2023-04-15T03:59:33;7.40;59.70
78886;DHT22;68269;52.514;5.722;2023-04-15T04:02:05;7.40;59.70
78886;DHT22;68269;52.514;5.722;2023-04-15T04:04:34;7.40;59.70
78886;DHT22;68269;52.514;5.722;2023-04-15T04:07:04;7.40;59.70
78886;DHT22;68269;52.514;5.722;2023-04-15T04:09:33;7.40;59.80
78886;DHT22;68269;52.514;5.722;2023-04-15T04:12:04;7.40;59.70
78886;DHT22;68269;52.514;5.722;2023-04-15T04:14:34;7.40;59.80
78886;DHT22;68269;52.514;5.722;2023-04-15T04:17:06;7.40;59.80
78886;DHT22;68269;52.514;5.722;2023-04-15T04:19:35;7.40;59.80
78886;DHT22;68269;52.514;5.722;2023-04-15T04:22:05;7.40;59.90
78886;DHT22;68269;52.514;5.722;2023-04-15T04:24:34;7.40;59.90
78886;DHT22;68269;52.514;5.722;2023-04-15T04:27:03;7.40;59.90
78886;DHT22;68269;52.514;5.722;2023-04-15T04:29:33;7.40;59.90
78886;DHT22;68269;52.514;5.722;2023-04-15T04:32:05;7.40;60.00
78886;DHT22;68269;52.514;5.722;2023-04-15T04:34:34;7.40;60.00
78886;DHT22;68269;52.514;5.722;2023-04-15T04:37:04;7.40;60.00
78886;DHT22;68269;52.514;5.722;2023-04-15T04:39:33;7.40;60.00
78886;DHT22;68269;52.514;5.722;2023-04-15T04:42:02;7.40;60.00
78886;DHT22;68269;52.514;5.722;2023-04-15T04:44:31;7.40;60.10
78886;DHT22;68269;52.514;5.722;2023-04-15T04:47:01;7.40;60.10
78886;DHT22;68269;52.514;5.722;2023-04-15T04:49:32;7.50;60.10
78886;DHT22;68269;52.514;5.722;2023-04-15T04:52:02;7.50;60.10
78886;DHT22;68269;52.514;5.722;2023-04-15T04:54:31;7.50;60.10
78886;DHT22;68269;52.514;5.722;2023-04-15T04:57:01;7.40;60.10
78886;DHT22;68269;52.514;5.722;2023-04-15T04:59:30;7.40;60.20
78886;DHT22;68269;52.514;5.722;2023-04-15T05:01:59;7.40;60.20
78886;DHT22;68269;52.514;5.722;2023-04-15T05:04:29;7.40;60.20
78886;DHT22;68269;52.514;5.722;2023-04-15T05:07:02;7.40;60.30
78886;DHT22;68269;52.514;5.722;2023-04-15T05:09:31;7.40;60.30
78886;DHT22;68269;52.514;5.722;2023-04-15T05:12:02;7.40;60.30
78886;DHT22;68269;52.514;5.722;2023-04-15T05:14:31;7.40;60.40
78886;DHT22;68269;52.514;5.722;2023-04-15T05:17:01;7.40;60.40
78886;DHT22;68269;52.514;5.722;2023-04-15T05:19:30;7.40;60.40
78886;DHT22;68269;52.514;5.722;2023-04-15T05:22:02;7.40;60.40
78886;DHT22;68269;52.514;5.722;2023-04-15T05:24:32;7.40;60.40
78886;DHT22;68269;52.514;5.722;2023-04-15T05:27:01;7.50;60.40
78886;DHT22;68269;52.514;5.722;2023-04-15T05:29:31;7.40;60.40
78886;DHT22;68269;52.514;5.722;2023-04-15T05:32:00;7.50;60.50
78886;DHT22;68269;52.514;5.722;2023-04-15T05:34:29;7.50;60.50
78886;DHT22;68269;52.514;5.722;2023-04-15T05:36:59;7.50;60.50
78886;DHT22;68269;52.514;5.722;2023-04-15T05:39:31;7.50;60.50
78886;DHT22;68269;52.514;5.722;2023-04-15T05:42:00;7.50;60.50
78886;DHT22;68269;52.514;5.722;2023-04-15T05:44:31;7.50;60.60
78886;DHT22;68269;52.514;5.722;2023-04-15T05:47:00;7.50;60.60
78886;DHT22;68269;52.514;5.722;2023-04-15T05:49:31;7.50;60.70
78886;DHT22;68269;52.514;5.722;2023-04-15T05:52:00;7.50;60.70
78886;DHT22;68269;52.514;5.722;2023-04-15T05:54:32;7.50;60.70
78886;DHT22;68269;52.514;5.722;2023-04-15T05:57:01;7.50;60.80
78886;DHT22;68269;52.514;5.722;2023-04-15T05:59:31;7.50;60.80
78886;DHT22;68269;52.514;5.722;2023-04-15T06:02:00;7.50;60.80
78886;DHT22;68269;52.514;5.722;2023-04-15T06:04:29;7.50;60.80
78886;DHT22;68269;52.514;5.722;2023-04-15T06:06:59;7.50;60.90
78886;DHT22;68269;52.514;5.722;2023-04-15T06:09:31;7.50;60.90
78886;DHT22;68269;52.514;5.722;2023-04-15T06:12:00;7.50;61.00
78886;DHT22;68269;52.514;5.722;2023-04-15T06:14:30;7.60;61.00
78886;DHT22;68269;52.514;5.722;2023-04-15T06:16:59;7.70;61.00
78886;DHT22;68269;52.514;5.722;2023-04-15T06:19:28;7.80;61.00
78886;DHT22;68269;52.514;5.722;2023-04-15T06:21:57;7.80;61.00
78886;DHT22;68269;52.514;5.722;2023-04-15T06:24:27;8.00;61.00
78886;DHT22;68269;52.514;5.722;2023-04-15T06:27:00;8.00;61.00
78886;DHT22;68269;52.514;5.722;2023-04-15T06:29:30;8.10;61.00
78886;DHT22;68269;52.514;5.722;2023-04-15T06:31:59;8.30;61.00
78886;DHT22;68269;52.514;5.722;2023-04-15T06:34:28;8.40;61.00
78886;DHT22;68269;52.514;5.722;2023-04-15T06:36:57;8.50;61.10
78886;DHT22;68269;52.514;5.722;2023-04-15T06:39:27;8.50;61.10
78886;DHT22;68269;52.514;5.722;2023-04-15T06:41:56;8.60;61.10
78886;DHT22;68269;52.514;5.722;2023-04-15T06:44:29;8.70;61.20
78886;DHT22;68269;52.514;5.722;2023-04-15T06:46:58;8.80;61.20
78886;DHT22;68269;52.514;5.722;2023-04-15T06:49:27;8.80;61.30
78886;DHT22;68269;52.514;5.722;2023-04-15T06:51:57;8.90;61.30
78886;DHT22;68269;52.514;5.722;2023-04-15T06:54:26;8.90;61.40
78886;DHT22;68269;52.514;5.722;2023-04-15T06:56:56;9.00;61.40
78886;DHT22;68269;52.514;5.722;2023-04-15T06:59:28;9.00;61.50
78886;DHT22;68269;52.514;5.722;2023-04-15T07:01:57;9.00;61.50
78886;DHT22;68269;52.514;5.722;2023-04-15T07:04:26;9.00;61.60
78886;DHT22;68269;52.514;5.722;2023-04-15T07:06:56;9.10;61.60
78886;DHT22;68269;52.514;5.722;2023-04-15T07:09:27;9.10;61.60
78886;DHT22;68269;52.514;5.722;2023-04-15T07:11:57;9.20;61.60
78886;DHT22;68269;52.514;5.722;2023-04-15T07:14:29;9.20;61.60
78886;DHT22;68269;52.514;5.722;2023-04-15T07:16:58;9.20;61.70
78886;DHT22;68269;52.514;5.722;2023-04-15T07:19:28;9.20;61.70
78886;DHT22;68269;52.514;5.722;2023-04-15T07:21:57;9.20;61.70
78886;DHT22;68269;52.514;5.722;2023-04-15T07:24:26;9.20;61.80
78886;DHT22;68269;52.514;5.722;2023-04-15T07:26:56;9.20;61.80
78886;DHT22;68269;52.514;5.722;2023-04-15T07:29:25;9.20;61.80
78886;DHT22;68269;52.514;5.722;2023-04-15T07:31:57;9.20;61.80
78886;DHT22;68269;52.514;5.722;2023-04-15T07:34:26;9.20;61.90
78886;DHT22;68269;52.514;5.722;2023-04-15T07:36:56;9.20;61.80
78886;DHT22;68269;52.514;5.722;2023-04-15T07:39:25;9.30;61.80
78886;DHT22;68269;52.514;5.722;2023-04-15T07:41:55;9.40;61.90
78886;DHT22;68269;52.514;5.722;2023-04-15T07:44:24;9.40;61.90
78886;DHT22;68269;52.514;5.722;2023-04-15T07:46:57;9.40;61.90
78886;DHT22;68269;52.514;5.722;2023-04-15T07:49:26;9.40;61.90
78886;DHT22;68269;52.514;5.722;2023-04-15T07:51:55;9.40;61.90
78886;DHT22;68269;52.514;5.722;2023-04-15T07:54:25;9.50;62.00
78886;DHT22;68269;52.514;5.722;2023-04-15T07:56:55;9.50;61.90
78886;DHT22;68269;52.514;5.722;2023-04-15T07:59:24;9.50;62.00
78886;DHT22;68269;52.514;5.722;2023-04-15T08:01:58;9.60;62.00
78886;DHT22;68269;52.514;5.722;2023-04-15T08:04:27;9.70;62.00
78886;DHT22;68269;52.514;5.722;2023-04-15T08:06:57;9.70;62.00
78886;DHT22;68269;52.514;5.722;2023-04-15T08:09:26;9.80;62.00
78886;DHT22;68269;52.514;5.722;2023-04-15T08:11:56;9.80;62.00
78886;DHT22;68269;52.514;5.722;2023-04-15T08:14:25;10.00;62.10
78886;DHT22;68269;52.514;5.722;2023-04-15T08:16:57;10.00;62.10
78886;DHT22;68269;52.514;5.722;2023-04-15T08:19:26;10.00;62.10
78886;DHT22;68269;52.514;5.722;2023-04-15T08:21:56;10.10;62.10
78886;DHT22;68269;52.514;5.722;2023-04-15T08:24:25;10.20;62.10
78886;DHT22;68269;52.514;5.722;2023-04-15T08:26:55;10.20;62.10
78886;DHT22;68269;52.514;5.722;2023-04-15T08:29:25;10.30;62.10
78886;DHT22;68269;52.514;5.722;2023-04-15T08:31:57;10.40;62.10
78886;DHT22;68269;52.514;5.722;2023-04-15T08:34:27;10.40;62.00
78886;DHT22;68269;52.514;5.722;2023-04-15T08:36:56;10.50;62.00
78886;DHT22;68269;52.514;5.722;2023-04-15T08:39:26;10.50;62.00
78886;DHT22;68269;52.514;5.722;2023-04-15T08:41:59;10.60;62.10
78886;DHT22;68269;52.514;5.722;2023-04-15T08:44:33;10.70;62.00
78886;DHT22;68269;52.514;5.722;2023-04-15T08:47:07;10.80;62.10
78886;DHT22;68269;52.514;5.722;2023-04-15T08:49:39;10.90;62.10
78886;DHT22;68269;52.514;5.722;2023-04-15T08:52:09;11.00;62.00
78886;DHT22;68269;52.514;5.722;2023-04-15T08:54:39;11.00;62.00
78886;DHT22;68269;52.514;5.722;2023-04-15T08:57:08;11.00;62.10
78886;DHT22;68269;52.514;5.722;2023-04-15T08:59:38;11.00;62.10
78886;DHT22;68269;52.514;5.722;2023-04-15T09:02:11;11.10;62.10
78886;DHT22;68269;52.514;5.722;2023-04-15T09:04:40;11.10;62.10
78886;DHT22;68269;52.514;5.722;2023-04-15T09:07:09;11.10;62.10
78886;DHT22;68269;52.514;5.722;2023-04-15T09:09:41;11.10;62.10
78886;DHT22;68269;52.514;5.722;2023-04-15T09:12:11;11.10;62.10
78886;DHT22;68269;52.514;5.722;2023-04-15T09:14:44;11.10;62.10
78886;DHT22;68269;52.514;5.722;2023-04-15T09:17:18;11.20;62.00
78886;DHT22;68269;52.514;5.722;2023-04-15T09:19:47;11.30;62.10
78886;DHT22;68269;52.514;5.722;2023-04-15T09:22:19;11.30;62.10
78886;DHT22;68269;52.514;5.722;2023-04-15T09:24:49;11.30;62.10
78886;DHT22;68269;52.514;5.722;2023-04-15T09:27:20;11.40;62.10
78886;DHT22;68269;52.514;5.722;2023-04-15T09:29:49;11.50;62.10
78886;DHT22;68269;52.514;5.722;2023-04-15T09:32:21;11.50;62.10
78886;DHT22;68269;52.514;5.722;2023-04-15T09:34:50;11.50;62.10
78886;DHT22;68269;52.514;5.722;2023-04-15T09:37:34;11.70;62.10
78886;DHT22;68269;52.514;5.722;2023-04-15T09:40:04;11.70;62.00
78886;DHT22;68269;52.514;5.722;2023-04-15T09:42:35;11.90;62.00
78886;DHT22;68269;52.514;5.722;2023-04-15T09:45:08;11.90;61.90
78886;DHT22;68269;52.514;5.722;2023-04-15T09:47:41;12.00;61.90
78886;DHT22;68269;52.514;5.722;2023-04-15T09:50:10;12.10;61.90
78886;DHT22;68269;52.514;5.722;2023-04-15T09:52:41;12.10;61.90
78886;DHT22;68269;52.514;5.722;2023-04-15T09:55:12;12.10;61.90
78886;DHT22;68269;52.514;5.722;2023-04-15T09:57:42;12.10;61.90
78886;DHT22;68269;52.514;5.722;2023-04-15T10:00:13;12.20;61.90
78886;DHT22;68269;52.514;5.722;2023-04-15T10:02:46;12.20;61.80
78886;DHT22;68269;52.514;5.722;2023-04-15T10:05:16;12.30;61.80
78886;DHT22;68269;52.514;5.722;2023-04-15T10:07:46;12.40;61.70
78886;DHT22;68269;52.514;5.722;2023-04-15T10:10:16;12.50;61.60
78886;DHT22;68269;52.514;5.722;2023-04-15T10:12:46;12.50;61.50
78886;DHT22;68269;52.514;5.722;2023-04-15T10:15:16;12.70;61.50
78886;DHT22;68269;52.514;5.722;2023-04-15T10:17:49;12.80;61.40
78886;DHT22;68269;52.514;5.722;2023-04-15T10:20:18;12.90;61.40
78886;DHT22;68269;52.514;5.722;2023-04-15T10:22:48;13.00;61.30
78886;DHT22;68269;52.514;5.722;2023-04-15T10:25:19;13.10;61.30
78886;DHT22;68269;52.514;5.722;2023-04-15T10:27:49;13.10;61.30
78886;DHT22;68269;52.514;5.722;2023-04-15T10:30:19;13.10;61.30
78886;DHT22;68269;52.514;5.722;2023-04-15T10:32:52;13.20;61.40
78886;DHT22;68269;52.514;5.722;2023-04-15T10:35:22;13.30;61.40
78886;DHT22;68269;52.514;5.722;2023-04-15T10:37:51;13.30;61.30
78886;DHT22;68269;52.514;5.722;2023-04-15T10:40:26;13.30;61.40
78886;DHT22;68269;52.514;5.722;2023-04-15T10:42:58;13.30;61.30
78886;DHT22;68269;52.514;5.722;2023-04-15T10:45:31;13.50;61.20
78886;DHT22;68269;52.514;5.722;2023-04-15T10:48:05;13.50;61.30
78886;DHT22;68269;52.514;5.722;2023-04-15T10:50:36;13.60;61.30
78886;DHT22;68269;52.514;5.722;2023-04-15T10:53:09;13.70;61.20
78886;DHT22;68269;52.514;5.722;2023-04-15T10:55:38;13.90;61.00
78886;DHT22;68269;52.514;5.722;2023-04-15T10:58:09;13.80;61.00
78886;DHT22;68269;52.514;5.722;2023-04-15T11:00:40;13.60;61.10
78886;DHT22;68269;52.514;5.722;2023-04-15T11:03:35;13.50;61.20
78886;DHT22;68269;52.514;5.722;2023-04-15T11:06:05;13.50;61.20
78886;DHT22;68269;52.514;5.722;2023-04-15T11:08:53;13.40;61.20
78886;DHT22;68269;52.514;5.722;2023-04-15T11:11:22;13.40;61.20
78886;DHT22;68269;52.514;5.722;2023-04-15T11:13:52;13.50;61.10
78886;DHT22;68269;52.514;5.722;2023-04-15T11:16:21;13.50;61.00
78886;DHT22;68269;52.514;5.722;2023-04-15T11:18:56;13.50;61.00
78886;DHT22;68269;52.514;5.722;2023-04-15T11:21:27;13.60;60.90
78886;DHT22;68269;52.514;5.722;2023-04-15T11:23:56;13.60;60.90
78886;DHT22;68269;52.514;5.722;2023-04-15T11:26:25;13.60;60.90
78886;DHT22;68269;52.514;5.722;2023-04-15T11:28:55;13.60;60.90
78886;DHT22;68269;52.514;5.722;2023-04-15T11:31:26;13.70;60.80
78886;DHT22;68269;52.514;5.722;2023-04-15T11:33:59;13.70;60.80
78886;DHT22;68269;52.514;5.722;2023-04-15T11:36:30;13.70;60.70
78886;DHT22;68269;52.514;5.722;2023-04-15T11:38:59;13.70;60.70
78886;DHT22;68269;52.514;5.722;2023-04-15T11:41:29;13.70;60.70
78886;DHT22;68269;52.514;5.722;2023-04-15T11:43:58;13.90;60.70
78886;DHT22;68269;52.514;5.722;2023-04-15T11:46:28;13.90;60.60
78886;DHT22;68269;52.514;5.722;2023-04-15T11:49:01;13.80;60.70
78886;DHT22;68269;52.514;5.722;2023-04-15T11:51:31;13.90;60.70
78886;DHT22;68269;52.514;5.722;2023-04-15T11:54:01;13.90;60.50
78886;DHT22;68269;52.514;5.722;2023-04-15T11:56:30;14.00;60.50
78886;DHT22;68269;52.514;5.722;2023-04-15T11:59:00;14.10;60.40
78886;DHT22;68269;52.514;5.722;2023-04-15T12:01:32;14.00;60.40
78886;DHT22;68269;52.514;5.722;2023-04-15T12:04:10;14.00;60.30
78886;DHT22;68269;52.514;5.722;2023-04-15T12:06:39;14.00;60.40
78886;DHT22;68269;52.514;5.722;2023-04-15T12:09:10;14.00;60.30
78886;DHT22;68269;52.514;5.722;2023-04-15T12:11:42;13.90;60.40
78886;DHT22;68269;52.514;5.722;2023-04-15T12:14:17;13.90;60.40
78886;DHT22;68269;52.514;5.722;2023-04-15T12:16:48;13.90;60.40
78886;DHT22;68269;52.514;5.722;2023-04-15T12:19:25;13.90;60.40
78886;DHT22;68269;52.514;5.722;2023-04-15T12:21:57;13.70;60.30
78886;DHT22;68269;52.514;5.722;2023-04-15T12:24:30;13.70;60.40
78886;DHT22;68269;52.514;5.722;2023-04-15T12:27:02;13.60;60.40
78886;DHT22;68269;52.514;5.722;2023-04-15T12:29:32;13.50;60.40
78886;DHT22;68269;52.514;5.722;2023-04-15T12:32:06;13.50;60.40
78886;DHT22;68269;52.514;5.722;2023-04-15T12:34:39;13.50;60.40
78886;DHT22;68269;52.514;5.722;2023-04-15T12:37:11;13.50;60.40
78886;DHT22;68269;52.514;5.722;2023-04-15T12:39:42;13.50;60.40
78886;DHT22;68269;52.514;5.722;2023-04-15T12:42:12;13.40;60.40
78886;DHT22;68269;52.514;5.722;2023-04-15T12:44:41;13.30;60.40
78886;DHT22;68269;52.514;5.722;2023-04-15T12:47:12;13.30;60.40
78886;DHT22;68269;52.514;5.722;2023-04-15T12:49:44;13.30;60.40
78886;DHT22;68269;52.514;5.722;2023-04-15T12:52:14;13.30;60.50
78886;DHT22;68269;52.514;5.722;2023-04-15T12:54:44;13.20;60.50
78886;DHT22;68269;52.514;5.722;2023-04-15T12:57:13;13.10;60.50
78886;DHT22;68269;52.514;5.722;2023-04-15T12:59:42;13.10;60.50
78886;DHT22;68269;52.514;5.722;2023-04-15T13:02:12;13.10;60.50
78886;DHT22;68269;52.514;5.722;2023-04-15T13:04:43;13.00;60.50
78886;DHT22;68269;52.514;5.722;2023-04-15T13:07:13;13.00;60.50
78886;DHT22;68269;52.514;5.722;2023-04-15T13:09:42;12.90;60.50
78886;DHT22;68269;52.514;5.722;2023-04-15T13:12:11;12.80;60.60
78886;DHT22;68269;52.514;5.722;2023-04-15T13:14:41;12.70;60.60
78886;DHT22;68269;52.514;5.722;2023-04-15T13:17:10;12.70;60.60
78886;DHT22;68269;52.514;5.722;2023-04-15T13:19:40;12.70;60.60
78886;DHT22;68269;52.514;5.722;2023-04-15T13:22:12;12.60;60.60
78886;DHT22;68269;52.514;5.722;2023-04-15T13:24:41;12.50;60.50
78886;DHT22;68269;52.514;5.722;2023-04-15T13:27:10;12.50;60.60
78886;DHT22;68269;52.514;5.722;2023-04-15T13:29:40;12.50;60.60
78886;DHT22;68269;52.514;5.722;2023-04-15T13:32:09;12.50;60.60
78886;DHT22;68269;52.514;5.722;2023-04-15T13:34:38;12.50;60.60
78886;DHT22;68269;52.514;5.722;2023-04-15T13:37:08;12.50;60.60
78886;DHT22;68269;52.514;5.722;2023-04-15T13:39:40;12.50;60.50
78886;DHT22;68269;52.514;5.722;2023-04-15T13:42:09;12.60;60.50
78886;DHT22;68269;52.514;5.722;2023-04-15T13:44:38;12.60;60.50
78886;DHT22;68269;52.514;5.722;2023-04-15T13:47:07;12.60;60.50
78886;DHT22;68269;52.514;5.722;2023-04-15T13:49:38;12.70;60.50
78886;DHT22;68269;52.514;5.722;2023-04-15T13:52:08;12.60;60.50
78886;DHT22;68269;52.514;5.722;2023-04-15T13:54:40;12.50;60.50
78886;DHT22;68269;52.514;5.722;2023-04-15T13:57:09;12.50;60.60
78886;DHT22;68269;52.514;5.722;2023-04-15T13:59:38;12.50;60.50
78886;DHT22;68269;52.514;5.722;2023-04-15T14:02:07;12.50;60.70
78886;DHT22;68269;52.514;5.722;2023-04-15T14:04:37;12.50;60.70
78886;DHT22;68269;52.514;5.722;2023-04-15T14:07:06;12.40;60.70
78886;DHT22;68269;52.514;5.722;2023-04-15T14:09:38;12.30;60.80
78886;DHT22;68269;52.514;5.722;2023-04-15T14:12:08;12.30;60.70
78886;DHT22;68269;52.514;5.722;2023-04-15T14:14:37;12.30;60.80
78886;DHT22;68269;52.514;5.722;2023-04-15T14:17:06;12.20;60.70
78886;DHT22;68269;52.514;5.722;2023-04-15T14:19:35;12.20;60.70
78886;DHT22;68269;52.514;5.722;2023-04-15T14:22:05;12.20;60.70
78886;DHT22;68269;52.514;5.722;2023-04-15T14:24:34;12.20;60.70
78886;DHT22;68269;52.514;5.722;2023-04-15T14:27:06;12.20;60.70
78886;DHT22;68269;52.514;5.722;2023-04-15T14:29:37;12.20;60.70
78886;DHT22;68269;52.514;5.722;2023-04-15T14:32:06;12.20;60.70
78886;DHT22;68269;52.514;5.722;2023-04-15T14:34:36;12.20;60.70
78886;DHT22;68269;52.514;5.722;2023-04-15T14:37:05;12.20;60.70
78886;DHT22;68269;52.514;5.722;2023-04-15T14:39:34;12.20;60.70
78886;DHT22;68269;52.514;5.722;2023-04-15T14:42:06;12.10;60.80
78886;DHT22;68269;52.514;5.722;2023-04-15T14:44:36;12.10;60.80
78886;DHT22;68269;52.514;5.722;2023-04-15T14:47:05;12.10;60.80
78886;DHT22;68269;52.514;5.722;2023-04-15T14:49:34;12.10;60.80
78886;DHT22;68269;52.514;5.722;2023-04-15T14:52:04;12.00;60.90
78886;DHT22;68269;52.514;5.722;2023-04-15T14:54:34;11.90;60.90
78886;DHT22;68269;52.514;5.722;2023-04-15T14:57:06;11.90;60.90
78886;DHT22;68269;52.514;5.722;2023-04-15T14:59:35;11.90;61.00
78886;DHT22;68269;52.514;5.722;2023-04-15T15:02:04;11.90;60.90
78886;DHT22;68269;52.514;5.722;2023-04-15T15:04:34;11.90;60.90
78886;DHT22;68269;52.514;5.722;2023-04-15T15:07:04;11.90;60.90
78886;DHT22;68269;52.514;5.722;2023-04-15T15:09:33;11.80;61.00
78886;DHT22;68269;52.514;5.722;2023-04-15T15:12:02;11.70;61.00
78886;DHT22;68269;52.514;5.722;2023-04-15T15:14:34;11.70;61.10
78886;DHT22;68269;52.514;5.722;2023-04-15T15:17:03;11.70;61.10
78886;DHT22;68269;52.514;5.722;2023-04-15T15:19:33;11.70;61.10
78886;DHT22;68269;52.514;5.722;2023-04-15T15:22:03;11.70;61.10
78886;DHT22;68269;52.514;5.722;2023-04-15T15:24:32;11.70;61.20
78886;DHT22;68269;52.514;5.722;2023-04-15T15:27:01;11.80;61.30
78886;DHT22;68269;52.514;5.722;2023-04-15T15:29:36;11.90;61.30
78886;DHT22;68269;52.514;5.722;2023-04-15T15:32:06;12.00;61.40
78886;DHT22;68269;52.514;5.722;2023-04-15T15:34:35;12.10;61.40
78886;DHT22;68269;52.514;5.722;2023-04-15T15:37:05;12.20;61.50
78886;DHT22;68269;52.514;5.722;2023-04-15T15:39:34;12.30;61.60
78886;DHT22;68269;52.514;5.722;2023-04-15T15:42:04;12.40;61.60
78886;DHT22;68269;52.514;5.722;2023-04-15T15:44:35;12.40;61.60
78886;DHT22;68269;52.514;5.722;2023-04-15T15:47:05;12.40;61.70
78886;DHT22;68269;52.514;5.722;2023-04-15T15:49:34;12.40;61.80
78886;DHT22;68269;52.514;5.722;2023-04-15T15:52:04;12.40;61.80
78886;DHT22;68269;52.514;5.722;2023-04-15T15:54:34;12.40;61.80
78886;DHT22;68269;52.514;5.722;2023-04-15T15:57:03;12.40;61.80